createdAt,value
2023-05-03T00:00:13.818Z,47.27
2023-05-03T00:01:14.756Z,47.25
2023-05-03T00:02:14.793Z,47.27
2023-05-03T00:03:13.906Z,47.25
2023-05-03T00:04:13.857Z,47.25
2023-05-03T00:05:14.998Z,47.22
2023-05-03T00:06:14.923Z,47.23
2023-05-03T00:07:14.928Z,47.23
2023-05-03T00:08:14.930Z,47.23
2023-05-03T00:09:14.958Z,47.23
2023-05-03T00:10:15.005Z,47.24
2023-05-03T00:11:15.016Z,47.25
2023-05-03T00:12:14.016Z,47.24
2023-05-03T00:13:15.051Z,47.24
2023-05-03T00:14:15.103Z,47.26
2023-05-03T00:15:14.106Z,47.23
2023-05-03T00:16:14.160Z,47.26
2023-05-03T00:17:15.232Z,47.25
2023-05-03T00:18:14.199Z,47.24
2023-05-03T00:19:24.224Z,47.23
2023-05-03T00:20:15.187Z,47.23
2023-05-03T00:21:15.168Z,47.22
2023-05-03T00:22:14.148Z,47.20
2023-05-03T00:23:14.150Z,47.23
2023-05-03T00:24:15.141Z,47.21
2023-05-03T00:25:14.137Z,47.21
2023-05-03T00:26:15.146Z,47.22
2023-05-03T00:27:14.130Z,47.20
2023-05-03T00:28:14.118Z,47.17
2023-05-03T00:29:14.097Z,47.19
2023-05-03T00:30:15.125Z,47.19
2023-05-03T00:31:14.217Z,47.19
2023-05-03T00:32:15.077Z,47.19
2023-05-03T00:33:15.089Z,47.17
2023-05-03T00:34:14.084Z,47.17
2023-05-03T00:35:15.069Z,47.17
2023-05-03T00:36:15.108Z,47.18
2023-05-03T00:37:15.063Z,47.15
2023-05-03T00:38:15.054Z,47.16
2023-05-03T00:39:15.056Z,47.14
2023-05-03T00:40:15.048Z,47.13
2023-05-03T00:41:15.077Z,47.15
2023-05-03T00:42:15.086Z,47.14
2023-05-03T00:43:15.109Z,47.16
2023-05-03T00:44:15.173Z,47.14
2023-05-03T00:45:15.174Z,47.14
2023-05-03T00:46:17.215Z,47.13
2023-05-03T00:47:14.287Z,47.13
2023-05-03T00:48:15.164Z,47.13
2023-05-03T00:49:15.178Z,47.13
2023-05-03T00:50:15.163Z,47.13
2023-05-03T00:51:15.169Z,47.13
2023-05-03T00:52:15.136Z,47.12
2023-05-03T00:53:14.132Z,47.14
2023-05-03T00:54:14.119Z,47.11
2023-05-03T00:55:14.109Z,47.12
2023-05-03T00:56:15.103Z,47.11
2023-05-03T00:57:15.107Z,47.14
2023-05-03T00:58:14.126Z,47.12
2023-05-03T00:59:15.109Z,47.12
2023-05-03T01:00:14.091Z,47.12
2023-05-03T01:01:15.090Z,47.11
2023-05-03T01:02:15.109Z,47.09
2023-05-03T01:03:15.124Z,47.10
2023-05-03T01:04:15.077Z,47.11
2023-05-03T01:05:15.049Z,47.09
2023-05-03T01:06:15.105Z,47.06
2023-05-03T01:07:14.039Z,47.05
2023-05-03T01:08:15.015Z,47.09
2023-05-03T01:09:15.009Z,47.08
2023-05-03T01:10:15.029Z,47.06
2023-05-03T01:11:14.005Z,47.02
2023-05-03T01:12:14.014Z,47.05
2023-05-03T01:13:14.996Z,47.05
2023-05-03T01:14:14.982Z,47.08
2023-05-03T01:15:14.974Z,47.06
2023-05-03T01:16:15.120Z,47.07
2023-05-03T01:17:14.976Z,47.07
2023-05-03T01:18:14.117Z,47.08
2023-05-03T01:19:13.953Z,47.07
2023-05-03T01:20:14.958Z,47.07
2023-05-03T01:21:14.957Z,47.07
2023-05-03T01:22:14.924Z,47.02
2023-05-03T01:23:14.942Z,47.05
2023-05-03T01:24:14.922Z,47.04
2023-05-03T01:25:14.918Z,47.06
2023-05-03T01:26:14.916Z,47.07
2023-05-03T01:27:14.916Z,47.05
2023-05-03T01:28:14.962Z,47.02
2023-05-03T01:29:13.886Z,47.05
2023-05-03T01:30:14.893Z,47.03
2023-05-03T01:31:13.896Z,47.07
2023-05-03T01:32:13.886Z,47.03
2023-05-03T01:33:14.895Z,47.04
2023-05-03T01:34:14.902Z,47.03
2023-05-03T01:35:14.858Z,47.01
2023-05-03T01:36:13.832Z,47.03
2023-05-03T01:37:14.852Z,47.02
2023-05-03T01:38:14.856Z,47.02
2023-05-03T01:39:14.880Z,47.00
2023-05-03T01:40:14.926Z,47.00
2023-05-03T01:41:14.936Z,47.02
2023-05-03T01:42:14.931Z,47.01
2023-05-03T01:43:14.946Z,47.01
2023-05-03T01:44:14.978Z,47.01
2023-05-03T01:45:14.037Z,47.00
2023-05-03T01:46:15.098Z,47.01
2023-05-03T01:47:14.061Z,46.99
2023-05-03T01:48:14.097Z,46.99
2023-05-03T01:49:15.105Z,47.00
2023-05-03T01:50:14.149Z,47.01
2023-05-03T01:51:15.137Z,46.99
2023-05-03T01:52:15.156Z,46.99
2023-05-03T01:53:15.208Z,47.00
2023-05-03T01:54:15.194Z,46.97
2023-05-03T01:55:15.227Z,46.95
2023-05-03T01:56:15.232Z,46.96
2023-05-03T01:57:15.267Z,46.96
2023-05-03T01:58:15.264Z,46.96
2023-05-03T01:59:15.314Z,47.00
2023-05-03T02:00:14.323Z,46.95
2023-05-03T02:01:14.422Z,46.99
2023-05-03T02:02:15.358Z,46.96
2023-05-03T02:03:15.396Z,46.94
2023-05-03T02:04:14.425Z,46.96
2023-05-03T02:05:15.434Z,46.95
2023-05-03T02:06:15.513Z,46.97
2023-05-03T02:07:15.459Z,46.96
2023-05-03T02:08:14.497Z,46.97
2023-05-03T02:09:15.496Z,46.92
2023-05-03T02:10:14.602Z,46.95
2023-05-03T02:11:15.532Z,46.92
2023-05-03T02:12:15.570Z,46.92
2023-05-03T02:13:15.595Z,46.95
2023-05-03T02:14:14.633Z,46.94
2023-05-03T02:15:14.666Z,46.91
2023-05-03T02:16:15.696Z,46.95
2023-05-03T02:17:15.681Z,46.93
2023-05-03T02:18:15.700Z,46.93
2023-05-03T02:19:14.732Z,46.92
2023-05-03T02:20:14.753Z,46.92
2023-05-03T02:21:15.771Z,46.92
2023-05-03T02:22:15.836Z,46.91
2023-05-03T02:23:15.839Z,46.91
2023-05-03T02:24:14.923Z,46.91
2023-05-03T02:25:14.891Z,46.93
2023-05-03T02:26:14.885Z,46.90
2023-05-03T02:27:15.920Z,46.87
2023-05-03T02:28:15.959Z,46.92
2023-05-03T02:29:14.977Z,46.91
2023-05-03T02:30:16.009Z,46.88
2023-05-03T02:31:16.053Z,46.87
2023-05-03T02:32:15.053Z,46.91
2023-05-03T02:33:16.075Z,46.90
2023-05-03T02:34:15.111Z,46.90
2023-05-03T02:35:15.150Z,46.88
2023-05-03T02:36:16.166Z,46.90
2023-05-03T02:37:15.181Z,46.90
2023-05-03T02:38:16.249Z,46.88
2023-05-03T02:39:16.255Z,46.85
2023-05-03T02:40:16.275Z,46.89
2023-05-03T02:41:15.324Z,46.88
2023-05-03T02:42:16.332Z,46.87
2023-05-03T02:43:15.361Z,46.89
2023-05-03T02:44:16.398Z,46.86
2023-05-03T02:45:16.412Z,46.89
2023-05-03T02:46:16.537Z,46.88
2023-05-03T02:47:15.469Z,46.85
2023-05-03T02:48:16.510Z,46.86
2023-05-03T02:49:16.530Z,46.90
2023-05-03T02:50:15.538Z,46.88
2023-05-03T02:51:16.581Z,46.87
2023-05-03T02:52:16.602Z,46.87
2023-05-03T02:53:15.646Z,46.86
2023-05-03T02:54:15.703Z,46.86
2023-05-03T02:55:16.702Z,46.86
2023-05-03T02:56:16.731Z,46.85
2023-05-03T02:57:15.753Z,46.83
2023-05-03T02:58:15.794Z,46.84
2023-05-03T02:59:16.819Z,46.85
2023-05-03T03:00:16.859Z,46.82
2023-05-03T03:01:16.924Z,46.83
2023-05-03T03:02:15.892Z,46.83
2023-05-03T03:03:17.015Z,46.81
2023-05-03T03:04:15.986Z,46.80
2023-05-03T03:05:16.999Z,46.83
2023-05-03T03:06:17.076Z,46.81
2023-05-03T03:07:17.039Z,46.80
2023-05-03T03:08:16.079Z,46.83
2023-05-03T03:09:17.122Z,46.77
2023-05-03T03:10:16.157Z,46.79
2023-05-03T03:11:17.172Z,46.77
2023-05-03T03:12:17.200Z,46.78
2023-05-03T03:13:16.216Z,46.82
2023-05-03T03:14:16.275Z,46.79
2023-05-03T03:15:17.305Z,46.78
2023-05-03T03:16:17.344Z,46.78
2023-05-03T03:17:16.332Z,46.79
2023-05-03T03:18:18.369Z,46.79
2023-05-03T03:19:16.347Z,46.79
2023-05-03T03:20:17.329Z,46.79
2023-05-03T03:21:17.341Z,46.81
2023-05-03T03:22:16.327Z,46.79
2023-05-03T03:23:17.325Z,46.77
2023-05-03T03:24:16.377Z,46.78
2023-05-03T03:25:17.300Z,46.77
2023-05-03T03:26:17.342Z,46.78
2023-05-03T03:27:17.292Z,46.79
2023-05-03T03:28:17.286Z,46.79
2023-05-03T03:29:16.353Z,46.76
2023-05-03T03:30:16.283Z,46.78
2023-05-03T03:31:16.309Z,46.77
2023-05-03T03:32:16.253Z,46.78
2023-05-03T03:33:17.311Z,46.77
2023-05-03T03:34:17.243Z,46.75
2023-05-03T03:35:16.233Z,46.76
2023-05-03T03:36:16.227Z,46.75
2023-05-03T03:37:17.225Z,46.73
2023-05-03T03:38:17.221Z,46.73
2023-05-03T03:39:17.254Z,46.76
2023-05-03T03:40:17.202Z,46.75
2023-05-03T03:41:17.252Z,46.74
2023-05-03T03:42:18.456Z,46.72
2023-05-03T03:43:16.162Z,46.73
2023-05-03T03:44:16.174Z,46.75
2023-05-03T03:45:16.170Z,46.74
2023-05-03T03:46:17.297Z,46.74
2023-05-03T03:47:17.184Z,46.72
2023-05-03T03:48:17.157Z,46.75
2023-05-03T03:49:16.118Z,46.73
2023-05-03T03:50:17.139Z,46.73
2023-05-03T03:51:17.120Z,46.72
2023-05-03T03:52:16.130Z,46.72
2023-05-03T03:53:17.121Z,46.73
2023-05-03T03:54:17.088Z,46.71
2023-05-03T03:55:17.101Z,46.74
2023-05-03T03:56:17.078Z,46.70
2023-05-03T03:57:17.059Z,46.73
2023-05-03T03:58:17.082Z,46.73
2023-05-03T03:59:16.051Z,46.72
2023-05-03T04:00:16.055Z,46.70
2023-05-03T04:01:17.051Z,46.70
2023-05-03T04:02:16.100Z,46.68
2023-05-03T04:03:16.111Z,46.69
2023-05-03T04:04:17.159Z,46.68
2023-05-03T04:05:17.038Z,46.66
2023-05-03T04:06:17.031Z,46.69
2023-05-03T04:07:17.005Z,46.71
2023-05-03T04:08:16.993Z,46.66
2023-05-03T04:09:16.980Z,46.58
2023-05-03T04:10:16.977Z,46.67
2023-05-03T04:11:16.984Z,46.68
2023-05-03T04:12:16.975Z,46.66
2023-05-03T04:13:15.950Z,46.68
2023-05-03T04:14:16.998Z,46.68
2023-05-03T04:15:16.969Z,46.66
2023-05-03T04:16:17.066Z,46.68
2023-05-03T04:17:16.914Z,46.68
2023-05-03T04:18:15.916Z,46.63
2023-05-03T04:19:16.893Z,46.66
2023-05-03T04:20:16.909Z,46.68
2023-05-03T04:21:15.894Z,46.66
2023-05-03T04:22:16.885Z,46.67
2023-05-03T04:23:15.913Z,46.64
2023-05-03T04:24:16.912Z,46.63
2023-05-03T04:25:15.927Z,46.64
2023-05-03T04:26:30.042Z,46.66
2023-05-03T04:27:16.979Z,46.66
2023-05-03T04:28:16.961Z,46.65
2023-05-03T04:29:16.976Z,46.62
2023-05-03T04:30:15.968Z,46.65
2023-05-03T04:31:16.968Z,46.62
2023-05-03T04:32:16.932Z,46.62
2023-05-03T04:33:16.918Z,46.58
2023-05-03T04:34:16.917Z,46.55
2023-05-03T04:35:16.910Z,46.55
2023-05-03T04:36:16.916Z,46.60
2023-05-03T04:37:16.882Z,46.58
2023-05-03T04:38:15.877Z,46.59
2023-05-03T04:39:15.878Z,46.56
2023-05-03T04:40:15.850Z,46.58
2023-05-03T04:41:16.852Z,46.58
2023-05-03T04:42:16.850Z,46.54
2023-05-03T04:43:15.824Z,46.52
2023-05-03T04:44:16.838Z,46.57
2023-05-03T04:45:15.830Z,46.54
2023-05-03T04:46:17.001Z,46.56
2023-05-03T04:47:15.821Z,46.53
2023-05-03T04:48:15.802Z,46.47
2023-05-03T04:49:15.798Z,46.51
2023-05-03T04:50:15.781Z,46.54
2023-05-03T04:51:15.799Z,46.50
2023-05-03T04:52:16.784Z,46.47
2023-05-03T04:53:15.797Z,46.45
2023-05-03T04:54:16.769Z,46.47
2023-05-03T04:55:16.753Z,46.49
2023-05-03T04:56:16.735Z,46.46
2023-05-03T04:57:16.745Z,46.46
2023-05-03T04:58:16.724Z,46.49
2023-05-03T04:59:15.725Z,46.46
2023-05-03T05:00:16.736Z,46.47
2023-05-03T05:01:16.749Z,46.48
2023-05-03T05:02:16.731Z,46.48
2023-05-03T05:03:15.753Z,46.47
2023-05-03T05:04:16.699Z,46.45
2023-05-03T05:05:17.985Z,46.45
2023-05-03T05:06:15.936Z,46.46
2023-05-03T05:07:16.793Z,46.44
2023-05-03T05:08:16.922Z,46.47
2023-05-03T05:09:15.720Z,46.44
2023-05-03T05:10:16.744Z,46.42
2023-05-03T05:11:15.704Z,46.41
2023-05-03T05:12:15.680Z,46.39
2023-05-03T05:13:15.621Z,46.35
2023-05-03T05:14:16.619Z,46.37
2023-05-03T05:15:16.667Z,46.35
2023-05-03T05:16:16.627Z,46.32
2023-05-03T05:17:16.668Z,46.43
2023-05-03T05:18:16.648Z,46.36
2023-05-03T05:19:15.570Z,46.44
2023-05-03T05:20:17.700Z,46.42
2023-05-03T05:21:16.594Z,46.42
2023-05-03T05:22:15.580Z,46.39
2023-05-03T05:23:16.530Z,46.39
2023-05-03T05:24:16.528Z,46.40
2023-05-03T05:25:16.532Z,46.48
2023-05-03T05:26:16.543Z,46.48
2023-05-03T05:27:15.696Z,46.55
2023-05-03T05:28:15.720Z,46.55
2023-05-03T05:29:16.484Z,46.54
2023-05-03T05:30:16.479Z,46.55
2023-05-03T05:31:15.540Z,46.59
2023-05-03T05:32:15.571Z,46.64
2023-05-03T05:33:18.409Z,46.76
2023-05-03T05:34:15.503Z,46.89
2023-05-03T05:35:16.512Z,47.02
2023-05-03T05:36:15.794Z,46.96
2023-05-03T05:37:16.956Z,46.92
2023-05-03T05:38:16.482Z,47.00
2023-05-03T05:39:17.002Z,47.09
2023-05-03T05:40:15.529Z,48.12
2023-05-03T05:41:15.791Z,47.55
2023-05-03T05:42:16.505Z,47.60
2023-05-03T05:43:16.404Z,47.67
2023-05-03T05:44:16.418Z,48.08
2023-05-03T05:45:15.413Z,48.08
2023-05-03T05:46:17.088Z,48.13
2023-05-03T05:47:15.510Z,48.62
2023-05-03T05:48:16.453Z,48.75
2023-05-03T05:49:15.375Z,48.56
2023-05-03T05:50:18.754Z,48.69
2023-05-03T05:51:16.362Z,48.90
2023-05-03T05:52:16.373Z,48.96
2023-05-03T05:53:15.336Z,48.78
2023-05-03T05:54:15.351Z,49.02
2023-05-03T05:55:15.300Z,48.80
2023-05-03T05:56:15.315Z,48.97
2023-05-03T05:57:16.334Z,49.00
2023-05-03T05:58:16.321Z,49.12
2023-05-03T05:59:15.407Z,49.08
2023-05-03T06:00:15.329Z,49.42
2023-05-03T06:01:16.329Z,49.33
2023-05-03T06:02:16.791Z,49.33
2023-05-03T06:03:15.282Z,49.10
2023-05-03T06:04:16.268Z,49.23
2023-05-03T06:05:16.326Z,48.95
2023-05-03T06:06:16.411Z,48.85
2023-05-03T06:07:17.046Z,48.65
2023-05-03T06:08:15.222Z,48.56
2023-05-03T06:09:24.066Z,48.41
2023-05-03T06:10:16.232Z,48.36
2023-05-03T06:11:16.219Z,48.27
2023-05-03T06:12:16.188Z,48.12
2023-05-03T06:13:16.235Z,48.03
2023-05-03T06:14:16.182Z,47.98
2023-05-03T06:15:16.181Z,47.96
2023-05-03T06:16:16.166Z,47.89
2023-05-03T06:17:16.200Z,47.84
2023-05-03T06:18:15.238Z,47.76
2023-05-03T06:19:15.153Z,47.71
2023-05-03T06:20:16.178Z,47.65
2023-05-03T06:21:16.110Z,47.63
2023-05-03T06:22:16.157Z,47.60
2023-05-03T06:23:16.108Z,47.59
2023-05-03T06:24:16.104Z,47.56
2023-05-03T06:25:16.974Z,47.54
2023-05-03T06:26:16.237Z,47.53
2023-05-03T06:27:16.853Z,47.49
2023-05-03T06:28:15.293Z,47.50
2023-05-03T06:29:16.365Z,47.47
2023-05-03T06:30:16.469Z,47.53
2023-05-03T06:31:15.281Z,47.51
2023-05-03T06:32:16.356Z,47.51
2023-05-03T06:33:16.273Z,47.46
2023-05-03T06:34:16.272Z,47.48
2023-05-03T06:35:16.322Z,47.47
2023-05-03T06:36:16.303Z,47.46
2023-05-03T06:37:16.312Z,47.43
2023-05-03T06:38:15.456Z,47.49
2023-05-03T06:39:15.331Z,47.45
2023-05-03T06:40:16.412Z,47.46
2023-05-03T06:41:15.336Z,47.39
2023-05-03T06:42:16.404Z,47.39
2023-05-03T06:43:15.437Z,47.33
2023-05-03T06:44:16.342Z,47.34
2023-05-03T06:45:15.349Z,47.29
2023-05-03T06:46:17.774Z,47.26
2023-05-03T06:47:16.356Z,47.27
2023-05-03T06:48:16.495Z,47.26
2023-05-03T06:49:15.427Z,47.23
2023-05-03T06:50:16.316Z,47.24
2023-05-03T06:51:16.506Z,47.69
2023-05-03T06:52:16.574Z,48.66
2023-05-03T06:53:16.338Z,49.23
2023-05-03T06:54:16.332Z,50.17
2023-05-03T06:55:16.523Z,50.73
2023-05-03T06:56:15.382Z,50.00
2023-05-03T06:57:16.552Z,50.37
2023-05-03T06:58:16.250Z,50.60
2023-05-03T06:59:15.436Z,50.60
2023-05-03T07:00:15.270Z,50.37
2023-05-03T07:01:16.300Z,49.77
2023-05-03T07:02:15.339Z,49.40
2023-05-03T07:03:15.679Z,49.06
2023-05-03T07:04:16.375Z,48.93
2023-05-03T07:05:16.295Z,48.57
2023-05-03T07:06:15.254Z,48.56
2023-05-03T07:07:16.487Z,48.42
2023-05-03T07:08:16.205Z,48.26
2023-05-03T07:09:15.181Z,48.15
2023-05-03T07:10:15.405Z,48.01
2023-05-03T07:11:15.199Z,47.97
2023-05-03T07:12:16.165Z,47.93
2023-05-03T07:13:16.153Z,47.83
2023-05-03T07:14:16.177Z,47.79
2023-05-03T07:15:15.142Z,47.75
2023-05-03T07:16:16.168Z,47.73
2023-05-03T07:17:16.180Z,47.71
2023-05-03T07:18:16.170Z,47.82
2023-05-03T07:19:16.109Z,47.81
2023-05-03T07:20:16.093Z,47.88
2023-05-03T07:21:15.137Z,47.77
2023-05-03T07:22:16.079Z,47.76
2023-05-03T07:23:17.118Z,47.68
2023-05-03T07:24:15.066Z,47.63
2023-05-03T07:25:15.132Z,47.63
2023-05-03T07:26:15.110Z,47.57
2023-05-03T07:27:15.112Z,47.58
2023-05-03T07:28:16.127Z,47.66
2023-05-03T07:29:15.207Z,47.62
2023-05-03T07:30:16.265Z,47.62
2023-05-03T07:31:17.297Z,47.62
2023-05-03T07:32:16.524Z,47.97
2023-05-03T07:33:16.711Z,48.00
2023-05-03T07:34:15.361Z,48.18
2023-05-03T07:35:15.371Z,49.06
2023-05-03T07:36:16.395Z,48.58
2023-05-03T07:37:16.504Z,48.42
2023-05-03T07:38:16.462Z,48.56
2023-05-03T07:39:16.504Z,48.69
2023-05-03T07:40:16.558Z,49.15
2023-05-03T07:41:15.601Z,48.95
2023-05-03T07:42:16.745Z,48.94
2023-05-03T07:43:16.913Z,48.85
2023-05-03T07:44:16.731Z,49.32
2023-05-03T07:45:16.814Z,48.99
2023-05-03T07:46:15.785Z,48.82
2023-05-03T07:47:16.768Z,49.93
2023-05-03T07:48:17.151Z,50.34
2023-05-03T07:49:16.891Z,48.22
2023-05-03T07:50:17.169Z,48.02
2023-05-03T07:51:16.926Z,49.66
2023-05-03T07:52:16.937Z,49.86
2023-05-03T07:53:17.115Z,50.11
2023-05-03T07:54:17.044Z,50.52
2023-05-03T07:55:17.124Z,50.51
2023-05-03T07:56:16.136Z,50.68
2023-05-03T07:57:16.307Z,50.49
2023-05-03T07:58:17.489Z,50.33
2023-05-03T07:59:17.246Z,50.07
2023-05-03T08:00:16.287Z,50.09
2023-05-03T08:01:17.372Z,49.98
2023-05-03T08:02:16.437Z,49.83
2023-05-03T08:03:16.599Z,49.62
2023-05-03T08:04:16.590Z,49.16
2023-05-03T08:05:16.507Z,48.94
2023-05-03T08:06:16.471Z,48.90
2023-05-03T08:07:17.468Z,48.86
2023-05-03T08:08:17.488Z,48.91
2023-05-03T08:09:17.440Z,48.82
2023-05-03T08:10:17.465Z,49.69
2023-05-03T08:11:16.538Z,49.51
2023-05-03T08:12:17.547Z,49.29
2023-05-03T08:13:16.528Z,49.19
2023-05-03T08:14:17.710Z,48.98
2023-05-03T08:15:17.558Z,49.01
2023-05-03T08:16:16.683Z,49.24
2023-05-03T08:17:17.629Z,49.12
2023-05-03T08:18:16.607Z,49.43
2023-05-03T08:19:17.659Z,49.52
2023-05-03T08:20:17.639Z,49.34
2023-05-03T08:21:17.715Z,49.43
2023-05-03T08:22:17.632Z,49.39
2023-05-03T08:23:16.655Z,49.22
2023-05-03T08:24:16.665Z,49.24
2023-05-03T08:25:17.690Z,49.27
2023-05-03T08:26:16.691Z,49.25
2023-05-03T08:27:16.720Z,49.23
2023-05-03T08:28:17.762Z,49.08
2023-05-03T08:29:17.791Z,48.72
2023-05-03T08:30:16.800Z,48.72
2023-05-03T08:31:18.000Z,48.65
2023-05-03T08:32:16.794Z,48.77
2023-05-03T08:33:17.871Z,48.83
2023-05-03T08:34:17.832Z,49.19
2023-05-03T08:35:17.847Z,49.44
2023-05-03T08:36:17.923Z,49.78
2023-05-03T08:37:16.916Z,49.42
2023-05-03T08:38:17.906Z,49.53
2023-05-03T08:39:16.911Z,49.69
2023-05-03T08:40:18.006Z,49.22
2023-05-03T08:41:17.964Z,49.54
2023-05-03T08:42:18.026Z,49.37
2023-05-03T08:43:18.103Z,49.55
2023-05-03T08:44:17.054Z,49.87
2023-05-03T08:45:18.109Z,49.86
2023-05-03T08:46:17.232Z,50.07
2023-05-03T08:47:17.094Z,50.35
2023-05-03T08:48:17.125Z,49.23
2023-05-03T08:49:18.114Z,48.38
2023-05-03T08:50:17.154Z,48.25
2023-05-03T08:51:18.346Z,47.81
2023-05-03T08:52:17.191Z,47.65
2023-05-03T08:53:18.242Z,47.60
2023-05-03T08:54:18.369Z,47.29
2023-05-03T08:55:18.444Z,47.43
2023-05-03T08:56:18.454Z,47.50
2023-05-03T08:57:18.455Z,47.56
2023-05-03T08:58:18.648Z,47.62
2023-05-03T08:59:17.529Z,47.41
2023-05-03T09:00:18.574Z,47.20
2023-05-03T09:01:18.690Z,46.90
2023-05-03T09:02:18.848Z,46.69
2023-05-03T09:03:19.298Z,46.75
2023-05-03T09:04:17.847Z,46.73
2023-05-03T09:05:17.782Z,46.64
2023-05-03T09:06:18.849Z,46.42
2023-05-03T09:07:18.840Z,46.37
2023-05-03T09:08:18.871Z,46.46
2023-05-03T09:09:18.966Z,47.09
2023-05-03T09:10:18.982Z,46.66
2023-05-03T09:11:18.049Z,47.02
2023-05-03T09:12:19.091Z,47.89
2023-05-03T09:13:19.188Z,48.07
2023-05-03T09:14:18.186Z,47.98
2023-05-03T09:15:19.197Z,47.94
2023-05-03T09:16:19.370Z,48.00
2023-05-03T09:17:19.284Z,47.93
2023-05-03T09:18:18.383Z,47.49
2023-05-03T09:19:19.348Z,47.37
2023-05-03T09:20:19.350Z,47.56
2023-05-03T09:21:18.356Z,47.73
2023-05-03T09:22:18.395Z,47.63
2023-05-03T09:23:19.465Z,47.73
2023-05-03T09:24:18.432Z,47.03
2023-05-03T09:25:19.473Z,46.57
2023-05-03T09:26:18.534Z,46.35
2023-05-03T09:27:19.577Z,46.12
2023-05-03T09:28:19.610Z,45.97
2023-05-03T09:29:18.693Z,45.86
2023-05-03T09:30:19.800Z,45.95
2023-05-03T09:31:19.861Z,45.86
2023-05-03T09:32:19.850Z,45.76
2023-05-03T09:33:20.052Z,45.63
2023-05-03T09:34:19.948Z,45.75
2023-05-03T09:35:19.970Z,45.96
2023-05-03T09:36:19.978Z,45.87
2023-05-03T09:37:19.055Z,45.56
2023-05-03T09:38:20.089Z,45.62
2023-05-03T09:39:20.110Z,45.53
2023-05-03T09:40:20.198Z,45.55
2023-05-03T09:41:19.178Z,45.42
2023-05-03T09:42:20.199Z,45.56
2023-05-03T09:43:19.716Z,45.73
2023-05-03T09:44:20.240Z,46.12
2023-05-03T09:45:20.233Z,47.11
2023-05-03T09:46:20.274Z,50.90
2023-05-03T09:47:20.264Z,49.94
2023-05-03T09:48:19.702Z,50.36
2023-05-03T09:49:20.396Z,49.37
2023-05-03T09:50:20.458Z,49.63
2023-05-03T09:51:20.501Z,49.99
2023-05-03T09:52:20.548Z,51.08
2023-05-03T09:53:20.578Z,53.21
2023-05-03T09:54:20.654Z,52.55
2023-05-03T09:55:20.663Z,52.15
2023-05-03T09:56:19.662Z,51.90
2023-05-03T09:57:19.681Z,51.94
2023-05-03T09:58:19.711Z,51.93
2023-05-03T09:59:19.800Z,51.72
2023-05-03T10:00:20.871Z,51.25
2023-05-03T10:01:19.911Z,50.72
2023-05-03T10:02:22.024Z,50.24
2023-05-03T10:03:20.953Z,49.90
2023-05-03T10:04:20.140Z,49.68
2023-05-03T10:05:20.086Z,49.66
2023-05-03T10:06:21.120Z,49.41
2023-05-03T10:07:21.113Z,49.09
2023-05-03T10:08:21.112Z,49.13
2023-05-03T10:09:21.126Z,48.97
2023-05-03T10:10:20.195Z,49.96
2023-05-03T10:11:21.215Z,49.73
2023-05-03T10:12:21.329Z,49.68
2023-05-03T10:13:20.271Z,49.17
2023-05-03T10:14:21.284Z,48.98
2023-05-03T10:15:20.299Z,49.10
2023-05-03T10:16:20.489Z,49.03
2023-05-03T10:17:20.352Z,48.91
2023-05-03T10:18:21.393Z,48.74
2023-05-03T10:19:20.381Z,49.35
2023-05-03T10:20:20.468Z,49.24
2023-05-03T10:21:20.470Z,48.62
2023-05-03T10:22:21.424Z,48.66
2023-05-03T10:23:21.498Z,48.48
2023-05-03T10:24:21.487Z,48.27
2023-05-03T10:25:20.513Z,49.36
2023-05-03T10:26:21.532Z,49.49
2023-05-03T10:27:20.533Z,48.82
2023-05-03T10:28:20.835Z,49.15
2023-05-03T10:29:20.539Z,48.56
2023-05-03T10:30:20.587Z,48.75
2023-05-03T10:31:21.654Z,48.74
2023-05-03T10:32:21.630Z,48.76
2023-05-03T10:33:22.292Z,48.89
2023-05-03T10:34:21.869Z,48.47
2023-05-03T10:35:21.894Z,48.92
2023-05-03T10:36:21.707Z,49.12
2023-05-03T10:37:21.799Z,48.95
2023-05-03T10:38:21.795Z,48.73
2023-05-03T10:39:21.714Z,48.11
2023-05-03T10:40:21.761Z,47.94
2023-05-03T10:41:20.785Z,48.02
2023-05-03T10:42:20.712Z,49.84
2023-05-03T10:43:22.151Z,52.05
2023-05-03T10:44:21.722Z,52.48
2023-05-03T10:45:21.745Z,52.41
2023-05-03T10:46:21.798Z,51.79
2023-05-03T10:47:21.883Z,51.56
2023-05-03T10:48:21.770Z,51.39
2023-05-03T10:49:21.920Z,51.23
2023-05-03T10:50:21.895Z,50.99
2023-05-03T10:51:21.954Z,51.00
2023-05-03T10:52:22.021Z,51.26
2023-05-03T10:53:22.139Z,50.87
2023-05-03T10:54:22.139Z,50.65
2023-05-03T10:55:21.195Z,50.21
2023-05-03T10:56:21.263Z,49.71
2023-05-03T10:57:22.325Z,49.00
2023-05-03T10:58:22.366Z,48.66
2023-05-03T10:59:21.410Z,48.08
2023-05-03T11:00:22.433Z,47.90
2023-05-03T11:01:21.534Z,47.97
2023-05-03T11:02:22.533Z,47.98
2023-05-03T11:03:22.549Z,47.60
2023-05-03T11:04:21.623Z,47.70
2023-05-03T11:05:21.664Z,47.74
2023-05-03T11:06:21.733Z,47.69
2023-05-03T11:07:21.690Z,47.73
2023-05-03T11:08:22.735Z,47.55
2023-05-03T11:09:21.826Z,47.53
2023-05-03T11:10:21.801Z,47.42
2023-05-03T11:11:22.806Z,47.32
2023-05-03T11:12:21.838Z,47.33
2023-05-03T11:13:21.934Z,47.27
2023-05-03T11:14:22.931Z,47.20
2023-05-03T11:15:22.956Z,47.23
2023-05-03T11:16:23.014Z,47.33
2023-05-03T11:17:22.113Z,47.41
2023-05-03T11:18:23.063Z,47.66
2023-05-03T11:19:22.172Z,47.64
2023-05-03T11:20:23.112Z,47.81
2023-05-03T11:21:23.141Z,47.56
2023-05-03T11:22:23.205Z,47.66
2023-05-03T11:23:23.238Z,47.80
2023-05-03T11:24:23.268Z,47.54
2023-05-03T11:25:22.328Z,47.21
2023-05-03T11:26:22.388Z,47.07
2023-05-03T11:27:22.351Z,47.03
2023-05-03T11:28:23.399Z,46.84
2023-05-03T11:29:23.719Z,46.88
2023-05-03T11:30:22.468Z,46.75
2023-05-03T11:31:23.587Z,46.71
2023-05-03T11:32:22.628Z,46.75
2023-05-03T11:33:23.574Z,46.87
2023-05-03T11:34:23.611Z,46.75
2023-05-03T11:35:23.607Z,46.66
2023-05-03T11:36:22.642Z,47.65
2023-05-03T11:37:22.717Z,48.25
2023-05-03T11:38:22.725Z,48.29
2023-05-03T11:39:22.811Z,48.58
2023-05-03T11:40:22.849Z,48.26
2023-05-03T11:41:23.965Z,48.08
2023-05-03T11:42:23.975Z,48.03
2023-05-03T11:43:24.002Z,47.89
2023-05-03T11:44:24.065Z,47.88
2023-05-03T11:45:24.089Z,47.41
2023-05-03T11:46:24.233Z,47.33
2023-05-03T11:47:24.217Z,47.27
2023-05-03T11:48:24.343Z,46.95
2023-05-03T11:49:23.243Z,46.69
2023-05-03T11:50:24.337Z,46.68
2023-05-03T11:51:24.344Z,46.47
2023-05-03T11:52:24.346Z,46.42
2023-05-03T11:53:24.547Z,46.39
2023-05-03T11:54:27.084Z,46.50
2023-05-03T11:55:24.444Z,46.54
2023-05-03T11:56:24.497Z,46.41
2023-05-03T11:57:24.453Z,46.37
2023-05-03T11:58:23.407Z,46.56
2023-05-03T11:59:24.413Z,46.66
2023-05-03T12:00:24.402Z,46.56
2023-05-03T12:01:24.416Z,46.67
2023-05-03T12:02:24.505Z,48.49
2023-05-03T12:03:28.554Z,50.11
2023-05-03T12:04:24.635Z,49.97
2023-05-03T12:05:24.828Z,49.55
2023-05-03T12:06:24.059Z,49.18
2023-05-03T12:07:26.789Z,49.39
2023-05-03T12:08:25.253Z,50.18
2023-05-03T12:09:26.209Z,51.01
2023-05-03T12:10:26.843Z,51.64
2023-05-03T12:11:26.570Z,51.23
2023-05-03T12:12:26.934Z,50.53
2023-05-03T12:13:25.301Z,48.36
2023-05-03T12:14:24.389Z,49.15
2023-05-03T12:15:26.448Z,49.88
2023-05-03T12:16:24.395Z,50.78
2023-05-03T12:17:23.518Z,51.63
2023-05-03T12:18:24.490Z,52.11
2023-05-03T12:19:24.447Z,51.95
2023-05-03T12:22:26.490Z,50.83
2023-05-03T12:23:26.369Z,51.35
2023-05-03T12:24:24.524Z,51.51
2023-05-03T12:25:26.080Z,51.21
2023-05-03T12:26:24.318Z,51.12
2023-05-03T12:27:24.288Z,51.15
2023-05-03T12:28:24.311Z,51.56
2023-05-03T12:29:24.364Z,51.15
2023-05-03T12:30:26.713Z,51.97
2023-05-03T12:31:24.545Z,52.09
2023-05-03T12:32:24.363Z,51.79
2023-05-03T12:33:26.877Z,52.03
2023-05-03T12:34:32.564Z,52.29
2023-05-03T12:35:27.646Z,52.15
2023-05-03T12:36:25.908Z,52.21
2023-05-03T12:37:27.162Z,52.22
2023-05-03T12:38:25.284Z,52.38
2023-05-03T12:39:27.263Z,52.42
2023-05-03T12:40:33.492Z,52.42
2023-05-03T12:41:51.987Z,51.65
2023-05-03T12:42:25.584Z,51.99
2023-05-03T12:43:24.326Z,52.14
2023-05-03T12:44:24.313Z,51.89
2023-05-03T12:45:27.492Z,51.96
2023-05-03T12:47:28.398Z,52.20
2023-05-03T12:48:24.361Z,52.14
2023-05-03T12:49:24.370Z,52.00
2023-05-03T12:51:26.005Z,52.42
2023-05-03T12:52:36.522Z,52.17
2023-05-03T12:53:26.244Z,52.26
2023-05-03T12:54:26.971Z,52.07
2023-05-03T12:55:25.666Z,52.11
2023-05-03T12:56:25.558Z,51.58